Time;durP1;ratioP1;P1;durP2;ratioP2;P2;SDS_P1;SDS_P2;PMS_P1;PMS_P2;Temp;Humidity;BMP_temperature;BMP_pressure;BME280_temperature;BME280_humidity;BME280_pressure;Samples;Min_cycle;Max_cycle;Signal;HPM_P1;HPM_P2
2023/04/14 00:00:46;;;;;;;0.60;0.60;;;;;;;;;;5100318;28;20304;-72
2023/04/14 00:03:15;;;;;;;0.63;0.63;;;;;;;;;;5100107;28;20217;-71
2023/04/14 00:05:45;;;;;;;0.50;0.50;;;;;;;;;;5100170;28;20217;-72
2023/04/14 00:08:13;;;;;;;0.47;0.47;;;;;;;;;;5100352;28;20243;-72
2023/04/14 00:10:41;;;;;;;0.70;0.70;;;;;;;;;;5099918;28;20261;-73
2023/04/14 00:13:09;;;;;;;0.60;0.60;;;;;;;;;;5100036;28;20275;-71
2023/04/14 00:15:37;;;;;;;0.30;0.30;;;;;;;;;;5099948;28;20640;-72
2023/04/14 00:18:05;;;;;;;0.50;0.50;;;;;;;;;;5099644;28;20212;-71
2023/04/14 00:20:33;;;;;;;0.40;0.40;;;;;;;;;;5100112;28;20222;-72
2023/04/14 00:23:02;;;;;;;0.37;0.37;;;;;;;;;;5099714;28;20229;-70
2023/04/14 00:25:30;;;;;;;0.30;0.30;;;;;;;;;;5099861;28;20233;-70
2023/04/14 00:27:58;;;;;;;0.40;0.40;;;;;;;;;;5099614;28;20292;-70
2023/04/14 00:30:26;;;;;;;0.63;0.47;;;;;;;;;;5099842;28;20232;-70
2023/04/14 00:32:54;;;;;;;0.60;0.60;;;;;;;;;;5099154;28;20214;-70
2023/04/14 00:35:23;;;;;;;0.50;0.50;;;;;;;;;;5099491;28;20691;-70
2023/04/14 00:37:51;;;;;;;0.63;0.63;;;;;;;;;;5099324;28;20665;-71
2023/04/14 00:40:20;;;;;;;0.50;0.50;;;;;;;;;;5099416;28;20225;-70
2023/04/14 00:42:49;;;;;;;0.47;0.47;;;;;;;;;;5096979;28;20595;-70
2023/04/14 00:45:17;;;;;;;0.60;0.60;;;;;;;;;;5099293;28;20221;-71
2023/04/14 00:47:46;;;;;;;0.50;0.50;;;;;;;;;;5098874;28;20209;-71
2023/04/14 00:50:15;;;;;;;0.40;0.40;;;;;;;;;;5099196;28;20634;-70
2023/04/14 00:52:44;;;;;;;0.40;0.40;;;;;;;;;;5099332;28;20676;-71
2023/04/14 00:55:13;;;;;;;0.30;0.30;;;;;;;;;;5099400;28;20204;-71
2023/04/14 00:57:42;;;;;;;0.50;0.50;;;;;;;;;;5099336;28;20210;-71
2023/04/14 01:00:12;;;;;;;0.93;0.43;;;;;;;;;;5098966;28;20233;-70
2023/04/14 01:02:41;;;;;;;0.60;0.60;;;;;;;;;;5098163;28;20275;-70
2023/04/14 01:05:09;;;;;;;0.50;0.50;;;;;;;;;;5099102;28;20225;-70
2023/04/14 01:07:38;;;;;;;0.60;0.60;;;;;;;;;;5099197;28;20212;-70
2023/04/14 01:10:06;;;;;;;0.60;0.60;;;;;;;;;;5099030;28;20233;-70
2023/04/14 01:12:40;;;;;;;0.30;0.30;;;;;;;;;;5098941;28;20217;-70
2023/04/14 01:15:12;;;;;;;0.83;0.50;;;;;;;;;;5099130;28;20229;-70
2023/04/14 01:17:44;;;;;;;0.67;0.67;;;;;;;;;;5098803;28;20736;-71
2023/04/14 01:20:16;;;;;;;1.40;0.50;;;;;;;;;;5098538;28;20221;-70
2023/04/14 01:22:53;;;;;;;0.30;0.30;;;;;;;;;;5099016;28;20210;-70
2023/04/14 01:25:42;;;;;;;0.50;0.50;;;;;;;;;;5098828;28;20229;-70
2023/04/14 01:28:14;;;;;;;0.33;0.33;;;;;;;;;;5093780;28;20248;-70
2023/04/14 01:30:47;;;;;;;0.30;0.30;;;;;;;;;;5098590;28;20229;-70
2023/04/14 01:33:20;;;;;;;0.60;0.60;;;;;;;;;;5098481;28;20209;-70
2023/04/14 01:35:50;;;;;;;1.00;0.37;;;;;;;;;;5098493;28;20204;-70
2023/04/14 01:38:22;;;;;;;0.33;0.33;;;;;;;;;;5098685;28;20296;-70
2023/04/14 01:40:51;;;;;;;0.60;0.60;;;;;;;;;;5096208;28;20226;-70
2023/04/14 01:43:22;;;;;;;1.70;0.57;;;;;;;;;;5098394;28;20591;-70
2023/04/14 01:45:52;;;;;;;0.57;0.57;;;;;;;;;;5098071;28;20771;-69
2023/04/14 01:48:22;;;;;;;0.40;0.40;;;;;;;;;;5098064;28;20575;-70
2023/04/14 01:50:50;;;;;;;0.53;0.30;;;;;;;;;;5098344;28;20253;-70
2023/04/14 01:53:19;;;;;;;0.53;0.50;;;;;;;;;;5098301;28;20206;-70
2023/04/14 01:55:48;;;;;;;0.40;0.40;;;;;;;;;;5098301;28;20201;-70
2023/04/14 01:58:17;;;;;;;0.50;0.50;;;;;;;;;;5098409;28;20205;-70
2023/04/14 02:00:46;;;;;;;1.37;0.63;;;;;;;;;;5098179;28;20252;-70
2023/04/14 02:03:14;;;;;;;2.40;0.50;;;;;;;;;;5097926;28;20206;-70
2023/04/14 02:05:44;;;;;;;1.43;0.60;;;;;;;;;;5097878;28;20704;-70
2023/04/14 02:08:13;;;;;;;0.40;0.40;;;;;;;;;;5098295;28;20213;-70
2023/04/14 02:10:42;;;;;;;0.70;0.70;;;;;;;;;;5098090;28;20308;-70
2023/04/14 02:13:11;;;;;;;0.40;0.40;;;;;;;;;;5097701;28;20227;-70
2023/04/14 02:15:39;;;;;;;0.70;0.43;;;;;;;;;;5097928;28;20312;-70
2023/04/14 02:18:08;;;;;;;1.27;0.70;;;;;;;;;;5097632;28;20288;-70
2023/04/14 02:20:42;;;;;;;0.50;0.50;;;;;;;;;;5097729;28;20249;-70
2023/04/14 02:23:11;;;;;;;0.53;0.53;;;;;;;;;;5097758;28;20205;-70
2023/04/14 02:25:41;;;;;;;0.60;0.40;;;;;;;;;;5097983;28;20237;-70
2023/04/14 02:28:14;;;;;;;0.50;0.50;;;;;;;;;;5097725;28;20300;-70
2023/04/14 02:30:42;;;;;;;0.50;0.50;;;;;;;;;;5097998;28;20260;-70
2023/04/14 02:33:12;;;;;;;0.50;0.50;;;;;;;;;;5097245;28;20569;-70
2023/04/14 02:35:43;;;;;;;0.43;0.43;;;;;;;;;;5097949;28;20208;-70
2023/04/14 02:38:16;;;;;;;0.50;0.50;;;;;;;;;;5097924;28;20284;-70
2023/04/14 02:40:44;;;;;;;0.50;0.50;;;;;;;;;;5096005;28;20259;-70
2023/04/14 02:43:14;;;;;;;0.63;0.50;;;;;;;;;;5097912;28;20209;-71
2023/04/14 02:45:42;;;;;;;0.40;0.40;;;;;;;;;;5097768;28;20261;-70
2023/04/14 02:48:13;;;;;;;0.50;0.50;;;;;;;;;;5097322;28;20658;-70
2023/04/14 02:50:42;;;;;;;0.40;0.40;;;;;;;;;;5097663;28;20225;-70
2023/04/14 02:53:12;;;;;;;0.73;0.47;;;;;;;;;;5097631;28;20293;-70
2023/04/14 02:55:40;;;;;;;0.40;0.40;;;;;;;;;;5097734;28;20290;-70
2023/04/14 02:58:08;;;;;;;0.97;0.50;;;;;;;;;;5097853;28;20239;-70
2023/04/14 03:00:38;;;;;;;0.40;0.40;;;;;;;;;;5097576;28;20233;-70
2023/04/14 03:03:06;;;;;;;0.90;0.60;;;;;;;;;;5097146;28;20227;-70
2023/04/14 03:05:35;;;;;;;0.70;0.70;;;;;;;;;;5097381;28;20240;-70
2023/04/14 03:08:04;;;;;;;0.50;0.50;;;;;;;;;;5097498;28;20238;-70
2023/04/14 03:10:33;;;;;;;0.50;0.50;;;;;;;;;;5097171;28;20229;-70
2023/04/14 03:13:02;;;;;;;1.07;0.70;;;;;;;;;;5097138;28;20267;-70
2023/04/14 03:15:30;;;;;;;0.63;0.50;;;;;;;;;;5097076;28;20261;-70
2023/04/14 03:17:58;;;;;;;0.60;0.50;;;;;;;;;;5096969;28;20252;-70
2023/04/14 03:20:26;;;;;;;0.60;0.60;;;;;;;;;;5097396;28;20228;-70
2023/04/14 03:22:59;;;;;;;0.80;0.50;;;;;;;;;;5097781;28;20210;-70
2023/04/14 03:25:28;;;;;;;0.47;0.47;;;;;;;;;;5098652;28;20225;-70
2023/04/14 03:27:59;;;;;;;0.60;0.60;;;;;;;;;;5101227;28;20209;-70
2023/04/14 03:30:29;;;;;;;0.53;0.53;;;;;;;;;;5100895;28;20257;-71
2023/04/14 03:32:59;;;;;;;0.60;0.60;;;;;;;;;;5100524;28;20676;-70
2023/04/14 03:35:28;;;;;;;0.50;0.50;;;;;;;;;;5101266;28;20213;-71
2023/04/14 03:37:58;;;;;;;0.50;0.50;;;;;;;;;;5101023;28;20233;-71
2023/04/14 03:40:29;;;;;;;0.70;0.63;;;;;;;;;;5100684;28;20264;-70
2023/04/14 03:43:00;;;;;;;0.63;0.63;;;;;;;;;;5099383;28;20236;-70
2023/04/14 03:45:28;;;;;;;1.37;0.57;;;;;;;;;;5100490;28;20312;-70
2023/04/14 03:48:00;;;;;;;0.87;0.60;;;;;;;;;;5100083;28;20778;-70
2023/04/14 03:50:30;;;;;;;4.13;0.77;;;;;;;;;;5100609;28;20255;-70
2023/04/14 03:52:59;;;;;;;0.70;0.60;;;;;;;;;;5100576;28;20672;-70
2023/04/14 03:55:27;;;;;;;0.50;0.50;;;;;;;;;;5100480;28;20269;-70
2023/04/14 03:57:56;;;;;;;0.60;0.60;;;;;;;;;;5100643;28;20205;-70
2023/04/14 04:00:25;;;;;;;0.70;0.60;;;;;;;;;;5100534;28;20228;-70
2023/04/14 04:02:54;;;;;;;0.50;0.50;;;;;;;;;;5100209;28;20236;-70
2023/04/14 04:05:22;;;;;;;0.50;0.50;;;;;;;;;;5100264;28;20221;-70
2023/04/14 04:07:52;;;;;;;0.63;0.50;;;;;;;;;;5100457;28;20233;-70
2023/04/14 04:10:20;;;;;;;1.80;0.60;;;;;;;;;;5100090;28;20728;-70
2023/04/14 04:12:49;;;;;;;1.57;0.60;;;;;;;;;;5100256;28;20233;-70
2023/04/14 04:15:17;;;;;;;0.40;0.40;;;;;;;;;;5099921;28;20736;-70
2023/04/14 04:17:50;;;;;;;0.53;0.53;;;;;;;;;;5099931;28;20292;-70
2023/04/14 04:20:18;;;;;;;0.60;0.60;;;;;;;;;;5099870;28;20300;-70
2023/04/14 04:22:48;;;;;;;0.53;0.53;;;;;;;;;;5099908;28;20233;-70
2023/04/14 04:25:16;;;;;;;0.50;0.50;;;;;;;;;;5099988;28;20212;-70
2023/04/14 04:27:44;;;;;;;0.50;0.43;;;;;;;;;;5099738;28;20707;-69
2023/04/14 04:30:13;;;;;;;1.63;0.43;;;;;;;;;;5099869;28;20257;-70
2023/04/14 04:32:41;;;;;;;0.50;0.50;;;;;;;;;;5099279;28;20205;-70
2023/04/14 04:35:11;;;;;;;0.63;0.50;;;;;;;;;;5099873;28;20237;-70
2023/04/14 04:37:39;;;;;;;0.50;0.50;;;;;;;;;;5099698;28;20233;-70
2023/04/14 04:40:08;;;;;;;0.50;0.50;;;;;;;;;;5099333;28;20232;-70
2023/04/14 04:42:40;;;;;;;0.90;0.50;;;;;;;;;;5097365;28;20293;-70
2023/04/14 04:45:08;;;;;;;0.60;0.60;;;;;;;;;;5100033;28;20229;-70
2023/04/14 04:47:36;;;;;;;0.73;0.70;;;;;;;;;;5099118;28;20271;-70
2023/04/14 04:50:04;;;;;;;0.60;0.60;;;;;;;;;;5099343;28;20287;-70
2023/04/14 04:52:34;;;;;;;0.63;0.63;;;;;;;;;;5099550;28;20292;-70
2023/04/14 04:55:02;;;;;;;1.47;0.90;;;;;;;;;;5099124;28;20644;-70
2023/04/14 04:57:30;;;;;;;0.87;0.50;;;;;;;;;;5099381;28;20206;-70
2023/04/14 04:59:58;;;;;;;0.50;0.50;;;;;;;;;;5099324;28;20257;-70
2023/04/14 05:02:26;;;;;;;0.90;0.90;;;;;;;;;;5098695;28;20211;-70
2023/04/14 05:04:54;;;;;;;0.67;0.60;;;;;;;;;;5099312;28;20293;-70
2023/04/14 05:07:22;;;;;;;2.10;0.90;;;;;;;;;;5098845;28;20261;-70
2023/04/14 05:09:51;;;;;;;2.17;0.70;;;;;;;;;;5099109;28;20232;-70
2023/04/14 05:12:19;;;;;;;0.60;0.60;;;;;;;;;;5099124;28;20212;-70
2023/04/14 05:14:47;;;;;;;1.00;1.00;;;;;;;;;;5098799;28;20292;-70
2023/04/14 05:17:15;;;;;;;0.77;0.77;;;;;;;;;;5098801;28;20233;-70
2023/04/14 05:19:43;;;;;;;0.80;0.80;;;;;;;;;;5098759;28;20225;-70
2023/04/14 05:22:11;;;;;;;1.60;0.83;;;;;;;;;;5098690;28;20326;-70
2023/04/14 05:24:39;;;;;;;0.80;0.70;;;;;;;;;;5098689;28;20220;-70
2023/04/14 05:27:09;;;;;;;0.73;0.70;;;;;;;;;;5098563;28;20240;-70
2023/04/14 05:29:41;;;;;;;0.80;0.80;;;;;;;;;;5098412;28;20743;-70
2023/04/14 05:32:10;;;;;;;2.57;0.70;;;;;;;;;;5098769;28;20237;-70
2023/04/14 05:34:38;;;;;;;0.40;0.40;;;;;;;;;;5098632;28;20201;-70
2023/04/14 05:37:06;;;;;;;0.90;0.90;;;;;;;;;;5098697;28;20232;-69
2023/04/14 05:39:34;;;;;;;2.10;0.70;;;;;;;;;;5098087;28;20244;-70
2023/04/14 05:42:02;;;;;;;2.00;1.17;;;;;;;;;;5096721;28;20236;-70
2023/04/14 05:44:31;;;;;;;0.80;0.80;;;;;;;;;;5098257;28;20738;-69
2023/04/14 05:46:59;;;;;;;1.23;0.80;;;;;;;;;;5098054;28;20236;-70
2023/04/14 05:49:27;;;;;;;1.23;0.93;;;;;;;;;;5097700;28;20257;-70
2023/04/14 05:51:55;;;;;;;1.73;1.37;;;;;;;;;;5098174;28;20240;-70
2023/04/14 05:54:23;;;;;;;0.70;0.70;;;;;;;;;;5098466;28;20206;-70
2023/04/14 05:56:51;;;;;;;1.03;0.83;;;;;;;;;;5098292;28;20201;-70
2023/04/14 05:59:19;;;;;;;1.83;0.83;;;;;;;;;;5097981;28;20260;-70
2023/04/14 06:01:49;;;;;;;1.60;0.70;;;;;;;;;;5098148;28;20212;-70
2023/04/14 06:04:17;;;;;;;1.90;0.80;;;;;;;;;;5097899;28;20600;-70
2023/04/14 06:06:45;;;;;;;0.90;0.70;;;;;;;;;;5097932;28;20252;-70
2023/04/14 06:09:13;;;;;;;1.57;0.90;;;;;;;;;;5098159;28;20197;-70
2023/04/14 06:11:41;;;;;;;2.50;1.10;;;;;;;;;;5097849;28;20639;-70
2023/04/14 06:14:09;;;;;;;1.47;1.27;;;;;;;;;;5098124;28;20244;-70
2023/04/14 06:16:37;;;;;;;1.13;0.67;;;;;;;;;;5097512;28;20235;-70
2023/04/14 06:19:06;;;;;;;0.77;0.77;;;;;;;;;;5097767;28;20266;-70
2023/04/14 06:21:34;;;;;;;1.17;0.80;;;;;;;;;;5097937;28;20335;-70
2023/04/14 06:24:02;;;;;;;0.87;0.87;;;;;;;;;;5094218;28;20338;-70
2023/04/14 06:26:31;;;;;;;0.87;0.80;;;;;;;;;;5097213;28;20228;-68
2023/04/14 06:28:59;;;;;;;432.63;341.53;;;;;;;;;;5097598;28;20201;-61
2023/04/14 06:31:27;;;;;;;6.77;4.67;;;;;;;;;;5097503;28;20208;-60
2023/04/14 06:33:55;;;;;;;1.33;0.90;;;;;;;;;;5098277;28;20232;-65
2023/04/14 06:36:25;;;;;;;1.13;1.03;;;;;;;;;;5098265;28;20193;-65
2023/04/14 06:38:54;;;;;;;3.40;3.10;;;;;;;;;;5088131;28;20202;-65
2023/04/14 06:41:22;;;;;;;3.63;1.47;;;;;;;;;;5094118;28;20632;-65
2023/04/14 06:43:50;;;;;;;4.20;2.00;;;;;;;;;;5095475;28;20255;-65
2023/04/14 06:46:18;;;;;;;1.33;1.10;;;;;;;;;;5094727;28;20201;-64
2023/04/14 06:48:46;;;;;;;3.87;1.50;;;;;;;;;;5094063;28;20244;-64
2023/04/14 06:51:14;;;;;;;1.50;0.90;;;;;;;;;;5089934;28;20305;-64
2023/04/14 06:53:43;;;;;;;1.13;1.07;;;;;;;;;;5097630;28;20205;-65
2023/04/14 06:56:11;;;;;;;2.47;1.00;;;;;;;;;;5096860;28;20209;-65
2023/04/14 06:58:39;;;;;;;0.90;0.80;;;;;;;;;;5097440;28;20204;-64
2023/04/14 07:01:07;;;;;;;0.73;0.70;;;;;;;;;;5100073;28;20704;-66
2023/04/14 07:03:36;;;;;;;1.03;0.73;;;;;;;;;;5100782;28;20209;-66
2023/04/14 07:06:05;;;;;;;0.70;0.70;;;;;;;;;;5101744;28;20201;-67
2023/04/14 07:08:34;;;;;;;2.50;1.00;;;;;;;;;;5101373;28;20251;-67
2023/04/14 07:11:04;;;;;;;1.93;0.90;;;;;;;;;;5101491;28;20225;-67
2023/04/14 07:13:33;;;;;;;1.17;1.03;;;;;;;;;;5101137;28;20205;-67
2023/04/14 07:16:01;;;;;;;0.73;0.73;;;;;;;;;;5100884;28;20247;-67
2023/04/14 07:18:30;;;;;;;1.13;0.80;;;;;;;;;;5100721;28;20665;-67
2023/04/14 07:20:58;;;;;;;0.87;0.87;;;;;;;;;;5101128;28;20225;-67
2023/04/14 07:23:27;;;;;;;1.00;0.80;;;;;;;;;;5100967;28;20216;-67
2023/04/14 07:25:56;;;;;;;0.63;0.63;;;;;;;;;;5101205;28;20293;-68
2023/04/14 07:28:26;;;;;;;0.87;0.87;;;;;;;;;;5100812;28;20248;-67
2023/04/14 07:30:54;;;;;;;1.10;0.80;;;;;;;;;;5100612;28;20253;-67
2023/04/14 07:33:22;;;;;;;1.47;0.90;;;;;;;;;;5086896;28;20209;-66
2023/04/14 07:35:51;;;;;;;2.07;1.00;;;;;;;;;;5101061;28;20292;-67
2023/04/14 07:38:30;;;;;;;2.53;1.00;;;;;;;;;;5100792;28;20254;-66
2023/04/14 07:40:58;;;;;;;0.70;0.70;;;;;;;;;;5098513;28;20226;-66
2023/04/14 07:43:33;;;;;;;1.40;0.90;;;;;;;;;;5100892;28;20208;-66
2023/04/14 07:46:03;;;;;;;0.90;0.90;;;;;;;;;;5100648;28;20230;-66
2023/04/14 07:48:32;;;;;;;0.80;0.80;;;;;;;;;;5100168;28;20247;-66
2023/04/14 07:51:00;;;;;;;1.23;0.80;;;;;;;;;;5100525;28;20237;-66
2023/04/14 07:53:28;;;;;;;0.77;0.77;;;;;;;;;;5100509;28;20233;-66
2023/04/14 07:55:57;;;;;;;1.20;0.70;;;;;;;;;;5100586;28;20296;-66
2023/04/14 07:58:25;;;;;;;0.90;0.90;;;;;;;;;;5100261;28;20198;-66
2023/04/14 08:00:57;;;;;;;0.87;0.87;;;;;;;;;;5100062;28;20317;-67
2023/04/14 08:03:25;;;;;;;0.70;0.70;;;;;;;;;;5099952;28;20620;-66
2023/04/14 08:05:53;;;;;;;0.80;0.80;;;;;;;;;;5100175;28;20665;-66
2023/04/14 08:08:21;;;;;;;2.10;0.83;;;;;;;;;;5100407;28;20257;-67
2023/04/14 08:10:49;;;;;;;4.20;0.80;;;;;;;;;;5099594;28;20596;-67
2023/04/14 08:13:17;;;;;;;1.77;0.83;;;;;;;;;;5099996;28;20664;-67
2023/04/14 08:15:45;;;;;;;1.03;0.90;;;;;;;;;;5099907;28;20324;-66
2023/04/14 08:18:15;;;;;;;0.87;0.87;;;;;;;;;;5099535;28;20590;-66
2023/04/14 08:20:43;;;;;;;1.10;1.03;;;;;;;;;;5100001;28;20222;-66
2023/04/14 08:23:11;;;;;;;1.93;0.90;;;;;;;;;;5099724;28;20209;-66
2023/04/14 08:25:39;;;;;;;2.47;0.80;;;;;;;;;;5100126;28;20239;-66
2023/04/14 08:28:07;;;;;;;0.87;0.87;;;;;;;;;;5099630;28;20261;-66
2023/04/14 08:30:35;;;;;;;1.87;1.10;;;;;;;;;;5099889;28;20284;-66
2023/04/14 08:33:03;;;;;;;2.70;1.20;;;;;;;;;;5099325;28;20668;-67
2023/04/14 08:35:33;;;;;;;0.80;0.80;;;;;;;;;;5099521;28;20205;-66
2023/04/14 08:38:03;;;;;;;0.97;0.87;;;;;;;;;;5099708;28;20205;-66
2023/04/14 08:40:34;;;;;;;2.00;1.07;;;;;;;;;;5099324;28;20229;-66
2023/04/14 08:43:02;;;;;;;0.60;0.60;;;;;;;;;;5098849;28;20213;-65
2023/04/14 08:45:31;;;;;;;0.60;0.60;;;;;;;;;;5099175;28;20244;-67
2023/04/14 08:47:59;;;;;;;0.80;0.80;;;;;;;;;;5105236;28;20223;-66
2023/04/14 08:50:31;;;;;;;1.53;0.80;;;;;;;;;;5105937;28;20217;-66
2023/04/14 08:53:03;;;;;;;2.47;0.70;;;;;;;;;;5105769;28;20669;-67
2023/04/14 08:55:32;;;;;;;1.63;1.03;;;;;;;;;;5095375;28;20220;-67
2023/04/14 08:58:01;;;;;;;1.33;0.83;;;;;;;;;;5088901;28;20202;-67
2023/04/14 09:00:29;;;;;;;1.57;1.43;;;;;;;;;;5104692;28;20304;-67
2023/04/14 09:02:57;;;;;;;0.90;0.83;;;;;;;;;;5108047;28;20202;-68
2023/04/14 09:05:26;;;;;;;1.43;0.90;;;;;;;;;;5103862;28;20201;-68
2023/04/14 09:07:54;;;;;;;1.57;1.00;;;;;;;;;;5106141;28;20204;-68
2023/04/14 09:10:24;;;;;;;0.87;0.80;;;;;;;;;;5105680;28;20228;-67
2023/04/14 09:12:52;;;;;;;1.40;0.80;;;;;;;;;;5106634;28;20201;-68
2023/04/14 09:15:20;;;;;;;1.20;1.20;;;;;;;;;;5107939;28;20258;-69
2023/04/14 09:17:48;;;;;;;0.70;0.70;;;;;;;;;;5101266;28;20205;-68
2023/04/14 09:20:16;;;;;;;2.30;1.20;;;;;;;;;;5098858;28;20218;-68
2023/04/14 09:23:04;;;;;;;1.77;0.80;;;;;;;;;;5098298;28;20284;-68
2023/04/14 09:25:35;;;;;;;1.07;1.00;;;;;;;;;;5098631;28;20618;-69
2023/04/14 09:28:03;;;;;;;3.57;1.20;;;;;;;;;;5098721;28;20210;-68
2023/04/14 09:30:31;;;;;;;0.87;0.83;;;;;;;;;;5098705;28;20225;-69
2023/04/14 09:32:59;;;;;;;0.90;0.90;;;;;;;;;;5103488;28;20233;-68
2023/04/14 09:35:42;;;;;;;0.83;0.83;;;;;;;;;;5105631;28;20198;-68
2023/04/14 09:38:10;;;;;;;0.90;0.90;;;;;;;;;;5103054;28;21739;-68
2023/04/14 09:40:42;;;;;;;1.03;0.97;;;;;;;;;;5097021;28;20328;-69
2023/04/14 09:43:22;;;;;;;2.07;1.30;;;;;;;;;;5084951;28;20205;-67
2023/04/14 09:45:50;;;;;;;3.20;1.17;;;;;;;;;;5098486;28;20232;-69
2023/04/14 09:48:19;;;;;;;1.10;1.00;;;;;;;;;;5107589;28;20718;-67
2023/04/14 09:50:57;;;;;;;1.00;0.67;;;;;;;;;;5105027;28;20248;-67
2023/04/14 09:53:26;;;;;;;1.20;0.67;;;;;;;;;;5106460;28;20635;-69
2023/04/14 09:55:56;;;;;;;0.90;0.90;;;;;;;;;;5105881;28;20205;-69
2023/04/14 09:58:24;;;;;;;1.77;1.10;;;;;;;;;;5107968;28;20197;-69
2023/04/14 10:00:56;;;;;;;1.00;1.00;;;;;;;;;;5103751;28;20225;-69
2023/04/14 10:03:34;;;;;;;1.67;0.80;;;;;;;;;;5108904;28;20224;-69
2023/04/14 10:06:04;;;;;;;1.70;0.70;;;;;;;;;;5104623;28;20208;-70
2023/04/14 10:08:36;;;;;;;0.97;0.60;;;;;;;;;;5108626;28;20201;-71
2023/04/14 10:11:15;;;;;;;0.63;0.63;;;;;;;;;;5077897;28;20226;-70
2023/04/14 10:13:43;;;;;;;0.97;0.67;;;;;;;;;;5077860;28;20284;-71
2023/04/14 10:16:12;;;;;;;2.33;0.70;;;;;;;;;;5077543;28;20325;-71
2023/04/14 10:18:40;;;;;;;0.60;0.60;;;;;;;;;;5077301;28;20212;-71
2023/04/14 10:21:08;;;;;;;0.90;0.70;;;;;;;;;;5090298;28;20225;-71
2023/04/14 10:23:37;;;;;;;0.60;0.60;;;;;;;;;;5097749;28;20572;-71
2023/04/14 10:26:06;;;;;;;0.83;0.77;;;;;;;;;;5098076;28;20254;-71
2023/04/14 10:28:36;;;;;;;0.70;0.70;;;;;;;;;;5084273;28;20228;-71
2023/04/14 10:31:05;;;;;;;0.80;0.80;;;;;;;;;;5097790;28;20236;-71
2023/04/14 10:33:36;;;;;;;0.90;0.80;;;;;;;;;;5097695;28;20292;-70
2023/04/14 10:36:04;;;;;;;0.80;0.80;;;;;;;;;;5102109;28;20292;-70
2023/04/14 10:38:39;;;;;;;0.57;0.57;;;;;;;;;;5101951;28;20572;-71
2023/04/14 10:41:07;;;;;;;0.70;0.70;;;;;;;;;;5099771;28;20263;-71
2023/04/14 10:43:37;;;;;;;1.97;0.73;;;;;;;;;;5101755;28;20259;-71
2023/04/14 10:46:06;;;;;;;2.17;0.83;;;;;;;;;;5101853;28;20208;-70
2023/04/14 10:48:36;;;;;;;1.93;0.97;;;;;;;;;;5102208;28;20250;-70
2023/04/14 10:51:05;;;;;;;0.80;0.80;;;;;;;;;;5101758;28;20224;-70
2023/04/14 10:53:37;;;;;;;0.70;0.70;;;;;;;;;;5103036;28;20197;-66
2023/04/14 10:56:06;;;;;;;0.67;0.67;;;;;;;;;;5110874;28;20201;-66
2023/04/14 10:58:34;;;;;;;1.83;0.60;;;;;;;;;;5110479;28;20208;-66
2023/04/14 11:01:17;;;;;;;0.70;0.70;;;;;;;;;;5107572;28;20221;-66
2023/04/14 11:03:46;;;;;;;0.70;0.60;;;;;;;;;;5101551;28;20205;-67
2023/04/14 11:06:35;;;;;;;4.40;1.03;;;;;;;;;;5090252;28;20205;-66
2023/04/14 11:09:21;;;;;;;1.03;0.97;;;;;;;;;;5090584;28;20202;-67
2023/04/14 11:11:49;;;;;;;1.90;0.90;;;;;;;;;;5089714;28;20232;-67
2023/04/14 11:14:17;;;;;;;1.07;0.97;;;;;;;;;;5106663;28;20571;-66
2023/04/14 11:16:45;;;;;;;0.90;0.77;;;;;;;;;;5103328;28;20280;-66
2023/04/14 11:19:32;;;;;;;0.50;0.50;;;;;;;;;;5114238;28;20221;-65
2023/04/14 11:22:00;;;;;;;2.90;0.87;;;;;;;;;;5101366;28;20209;-66
2023/04/14 11:24:28;;;;;;;0.70;0.57;;;;;;;;;;5101033;28;20205;-66
2023/04/14 11:26:57;;;;;;;0.60;0.60;;;;;;;;;;5103771;28;20232;-66
2023/04/14 11:29:25;;;;;;;0.63;0.63;;;;;;;;;;5109863;28;20255;-63
2023/04/14 11:32:04;;;;;;;0.67;0.50;;;;;;;;;;5103345;28;20233;-65
2023/04/14 11:34:34;;;;;;;0.40;0.40;;;;;;;;;;5089616;28;20201;-66
2023/04/14 11:37:03;;;;;;;1.13;0.53;;;;;;;;;;5087357;28;20202;-65
2023/04/14 11:39:31;;;;;;;3.00;0.67;;;;;;;;;;5090424;28;20217;-65
2023/04/14 11:42:00;;;;;;;0.70;0.70;;;;;;;;;;5090026;28;20241;-65
2023/04/14 11:44:28;;;;;;;0.87;0.50;;;;;;;;;;5091115;28;20210;-64
2023/04/14 11:46:56;;;;;;;0.73;0.70;;;;;;;;;;5087532;28;20205;-64
2023/04/14 11:49:36;;;;;;;0.50;0.50;;;;;;;;;;5088673;28;20222;-64
2023/04/14 11:52:04;;;;;;;1.57;0.70;;;;;;;;;;5087628;28;20256;-65
2023/04/14 11:54:34;;;;;;;1.10;0.77;;;;;;;;;;5100385;28;20205;-65
2023/04/14 11:57:03;;;;;;;0.73;0.60;;;;;;;;;;5098779;28;20210;-64
2023/04/14 11:59:31;;;;;;;0.47;0.47;;;;;;;;;;5090090;28;20304;-65
2023/04/14 12:02:02;;;;;;;0.60;0.60;;;;;;;;;;5092611;28;20244;-64
2023/04/14 12:04:31;;;;;;;0.70;0.70;;;;;;;;;;5108786;28;20212;-64
2023/04/14 12:07:00;;;;;;;0.73;0.60;;;;;;;;;;5101318;28;20202;-64
2023/04/14 12:09:29;;;;;;;1.03;0.60;;;;;;;;;;5089002;28;20267;-64
2023/04/14 12:11:57;;;;;;;2.00;0.67;;;;;;;;;;5089785;28;20202;-65
2023/04/14 12:14:26;;;;;;;0.73;0.60;;;;;;;;;;5088844;28;20248;-66
2023/04/14 12:16:55;;;;;;;0.90;0.53;;;;;;;;;;5097498;28;20212;-64
2023/04/14 12:19:25;;;;;;;1.50;0.63;;;;;;;;;;5079471;28;20309;-64
2023/04/14 12:21:53;;;;;;;2.40;0.70;;;;;;;;;;5098196;28;20206;-65
2023/04/14 12:24:22;;;;;;;1.33;1.23;;;;;;;;;;5099141;28;20262;-64
2023/04/14 12:26:50;;;;;;;0.83;0.53;;;;;;;;;;5099825;28;20206;-64
2023/04/14 12:29:21;;;;;;;0.90;0.40;;;;;;;;;;5099547;28;20319;-64
2023/04/14 12:31:49;;;;;;;1.10;0.70;;;;;;;;;;5099379;28;20663;-64
2023/04/14 12:34:24;;;;;;;0.67;0.50;;;;;;;;;;5099691;28;20293;-64
2023/04/14 12:36:52;;;;;;;1.03;0.50;;;;;;;;;;5099797;28;20240;-64
2023/04/14 12:39:22;;;;;;;0.50;0.50;;;;;;;;;;5099345;28;20221;-64
2023/04/14 12:41:50;;;;;;;0.80;0.60;;;;;;;;;;5097682;28;20246;-65
2023/04/14 12:44:19;;;;;;;3.33;0.73;;;;;;;;;;5099345;28;20763;-65
2023/04/14 12:46:48;;;;;;;2.63;0.60;;;;;;;;;;5099235;28;20205;-64
2023/04/14 12:49:29;;;;;;;0.50;0.50;;;;;;;;;;5099124;28;20206;-64
2023/04/14 12:51:57;;;;;;;0.67;0.60;;;;;;;;;;5099071;28;20312;-64
2023/04/14 12:54:26;;;;;;;0.57;0.57;;;;;;;;;;5099294;28;20223;-64
2023/04/14 12:56:56;;;;;;;2.27;0.60;;;;;;;;;;5099095;28;20284;-64
2023/04/14 12:59:28;;;;;;;2.10;0.70;;;;;;;;;;5098435;28;20675;-65
2023/04/14 13:01:59;;;;;;;1.00;0.80;;;;;;;;;;5098911;28;20197;-64
2023/04/14 13:04:27;;;;;;;1.80;0.50;;;;;;;;;;5099474;28;20209;-64
2023/04/14 13:06:55;;;;;;;1.30;0.53;;;;;;;;;;5096152;28;20292;-65
2023/04/14 13:09:23;;;;;;;0.60;0.60;;;;;;;;;;5078948;28;20265;-65
2023/04/14 13:11:53;;;;;;;2.43;0.53;;;;;;;;;;5078491;28;20664;-65
2023/04/14 13:14:21;;;;;;;0.73;0.60;;;;;;;;;;5078795;28;20202;-65
2023/04/14 13:16:49;;;;;;;0.70;0.50;;;;;;;;;;5078126;28;20801;-65
2023/04/14 13:19:17;;;;;;;0.40;0.40;;;;;;;;;;5079032;28;20206;-64
2023/04/14 13:21:45;;;;;;;1.33;0.53;;;;;;;;;;5096905;28;20225;-65
2023/04/14 13:24:13;;;;;;;0.60;0.50;;;;;;;;;;5099111;28;20210;-65
2023/04/14 13:26:40;;;;;;;0.60;0.60;;;;;;;;;;5098415;28;20710;-65
2023/04/14 13:29:11;;;;;;;0.80;0.80;;;;;;;;;;5098570;28;20615;-66
2023/04/14 13:31:39;;;;;;;0.53;0.50;;;;;;;;;;5105244;28;20216;-65
2023/04/14 13:34:09;;;;;;;0.97;0.50;;;;;;;;;;5104335;28;20194;-65
2023/04/14 13:36:37;;;;;;;0.63;0.63;;;;;;;;;;5105044;28;20360;-65
2023/04/14 13:39:05;;;;;;;0.83;0.60;;;;;;;;;;5105653;28;20232;-65
2023/04/14 13:41:33;;;;;;;0.93;0.50;;;;;;;;;;5096701;28;20226;-64
2023/04/14 13:44:03;;;;;;;1.40;0.50;;;;;;;;;;5106095;28;20273;-65
2023/04/14 13:46:33;;;;;;;1.87;0.70;;;;;;;;;;5103317;28;20227;-64
2023/04/14 13:49:08;;;;;;;1.90;0.60;;;;;;;;;;5108048;28;20205;-64
2023/04/14 13:51:36;;;;;;;1.47;0.70;;;;;;;;;;5107945;28;20219;-64
2023/04/14 13:54:04;;;;;;;1.50;0.50;;;;;;;;;;5103879;28;20202;-64
2023/04/14 13:56:32;;;;;;;0.93;0.70;;;;;;;;;;5105425;28;20194;-65
2023/04/14 13:59:00;;;;;;;1.70;0.50;;;;;;;;;;5100830;28;20672;-64
2023/04/14 14:01:28;;;;;;;0.90;0.67;;;;;;;;;;5104876;28;20209;-64
2023/04/14 14:03:58;;;;;;;0.50;0.50;;;;;;;;;;5097649;28;20642;-64
2023/04/14 14:06:26;;;;;;;0.97;0.50;;;;;;;;;;5098234;28;20288;-64
2023/04/14 14:09:01;;;;;;;1.23;0.70;;;;;;;;;;5097601;28;20683;-64
2023/04/14 14:11:32;;;;;;;1.70;0.80;;;;;;;;;;5096866;28;20621;-65
2023/04/14 14:14:01;;;;;;;0.43;0.40;;;;;;;;;;5093393;28;21114;-64
2023/04/14 14:16:29;;;;;;;0.83;0.50;;;;;;;;;;5095115;28;20312;-64
2023/04/14 14:19:07;;;;;;;1.13;0.73;;;;;;;;;;5095515;28;20204;-65
2023/04/14 14:21:35;;;;;;;0.60;0.60;;;;;;;;;;5092920;28;20193;-65
2023/04/14 14:24:03;;;;;;;0.50;0.50;;;;;;;;;;5087642;28;20205;-65
2023/04/14 14:26:31;;;;;;;0.73;0.60;;;;;;;;;;5097481;28;20665;-65
2023/04/14 14:28:59;;;;;;;1.93;0.80;;;;;;;;;;5097960;28;20216;-65
2023/04/14 14:31:27;;;;;;;1.57;0.77;;;;;;;;;;5101522;28;20305;-65
2023/04/14 14:33:55;;;;;;;2.17;0.70;;;;;;;;;;5096919;28;20665;-65
2023/04/14 14:36:25;;;;;;;0.90;0.67;;;;;;;;;;5097211;28;20205;-65
2023/04/14 14:38:53;;;;;;;1.47;0.80;;;;;;;;;;5097284;28;20318;-65
2023/04/14 14:41:21;;;;;;;0.80;0.80;;;;;;;;;;5093292;28;20264;-65
2023/04/14 14:43:49;;;;;;;1.03;0.70;;;;;;;;;;5095518;28;20201;-65
2023/04/14 14:46:17;;;;;;;0.63;0.63;;;;;;;;;;5095831;28;20238;-65
2023/04/14 14:48:45;;;;;;;0.67;0.67;;;;;;;;;;5095658;28;20288;-65
2023/04/14 14:51:14;;;;;;;0.73;0.73;;;;;;;;;;5095548;28;20258;-65
2023/04/14 14:53:43;;;;;;;0.60;0.60;;;;;;;;;;5095746;28;20206;-65
2023/04/14 14:56:11;;;;;;;1.40;0.73;;;;;;;;;;5096044;28;20205;-65